Time;durP1;ratioP1;P1;durP2;ratioP2;P2;SDS_P1;SDS_P2;PMS_P1;PMS_P2;Temp;Humidity;BMP_temperature;BMP_pressure;BME280_temperature;BME280_humidity;BME280_pressure;Samples;Min_cycle;Max_cycle;Signal;HPM_P1;HPM_P2
2023/09/11 00:13:36;;;;;;;3.80;3.03;;;;;;;26.96;38.25;98788.50;2079498;28;20359;-56
2023/09/11 00:14:36;;;;;;;4.50;3.58;;;;;;;26.98;38.31;98782.81;2085530;28;20049;-53
2023/09/11 00:15:38;;;;;;;3.67;2.95;;;;;;;27.01;37.91;98787.75;2085133;28;20508;-55
2023/09/11 00:16:40;;;;;;;3.17;2.85;;;;;;;27.03;37.71;98788.31;2089310;28;20051;-52
2023/09/11 00:17:42;;;;;;;4.47;3.00;;;;;;;27.08;37.50;98788.34;2088578;28;20051;-56
2023/09/11 00:18:43;;;;;;;3.58;3.00;;;;;;;27.08;37.04;98785.63;2087790;28;20051;-56
2023/09/11 00:19:45;;;;;;;5.07;3.03;;;;;;;27.12;36.21;98787.59;2089918;28;20052;-54
2023/09/11 00:20:46;;;;;;;3.92;3.38;;;;;;;27.13;36.22;98772.06;2089340;28;20442;-53
2023/09/11 00:21:48;;;;;;;3.50;2.63;;;;;;;27.08;36.34;98786.47;2088413;28;20048;-51
2023/09/11 00:22:49;;;;;;;3.40;3.00;;;;;;;27.04;36.94;98781.78;2089239;28;20047;-54
2023/09/11 00:23:50;;;;;;;3.88;2.58;;;;;;;27.03;36.74;98780.97;2089478;28;20566;-53
2023/09/11 00:24:51;;;;;;;4.88;3.63;;;;;;;27.06;36.51;98776.91;2088142;28;20075;-54
2023/09/11 00:25:52;;;;;;;3.88;3.47;;;;;;;27.13;36.31;98778.34;2089663;28;20176;-54
2023/09/11 00:26:55;;;;;;;3.00;2.70;;;;;;;27.13;36.41;98777.53;2086166;28;20302;-51
2023/09/11 00:27:56;;;;;;;4.13;3.35;;;;;;;27.06;37.11;98782.34;2087711;28;20059;-48
2023/09/11 00:28:59;;;;;;;3.85;3.28;;;;;;;27.05;37.71;98783.41;2085872;28;20066;-46
2023/09/11 00:30:00;;;;;;;3.83;3.10;;;;;;;27.05;37.95;98783.41;2085964;28;20204;-52
2023/09/11 00:31:02;;;;;;;3.92;3.17;;;;;;;27.08;37.83;98780.19;2089047;28;20383;-47
2023/09/11 00:32:03;;;;;;;3.00;2.65;;;;;;;27.08;37.78;98777.47;2086169;28;20767;-48
2023/09/11 00:33:06;;;;;;;3.97;2.35;;;;;;;27.05;38.16;98776.09;2087890;28;21704;-54
2023/09/11 00:48:35;;;;;;;4.53;2.72;;;;;;;26.89;37.14;98769.66;2085578;28;20053;-45
2023/09/11 00:49:39;;;;;;;6.43;3.05;;;;;;;27.00;36.73;98767.06;2088593;28;20056;-47
2023/09/11 00:50:44;;;;;;;6.65;3.55;;;;;;;27.00;36.37;98772.50;2085564;28;20053;-47
2023/09/11 00:51:44;;;;;;;3.65;3.00;;;;;;;27.02;36.44;98764.88;2088803;28;20164;-52
2023/09/11 00:52:47;;;;;;;3.95;2.95;;;;;;;27.07;36.09;98756.75;2088275;28;20049;-45
2023/09/11 00:53:49;;;;;;;8.52;3.05;;;;;;;27.04;36.28;98763.53;2083937;28;20052;-46
2023/09/11 00:54:53;;;;;;;3.80;2.95;;;;;;;27.05;36.00;98758.91;2087989;28;20045;-49
2023/09/11 00:55:54;;;;;;;3.50;3.17;;;;;;;27.07;35.84;98757.59;2087307;28;20052;-45
2023/09/11 00:56:57;;;;;;;5.75;3.85;;;;;;;27.10;35.78;98764.41;2086338;28;20060;-46
2023/09/11 00:57:58;;;;;;;5.40;3.80;;;;;;;27.02;36.44;98754.00;2088237;28;20048;-46
2023/09/11 00:59:00;;;;;;;6.07;2.38;;;;;;;27.03;36.06;98761.91;2087486;28;20128;-48
2023/09/11 01:00:01;;;;;;;5.28;4.05;;;;;;;26.96;36.57;98762.09;2087224;28;20072;-52
2023/09/11 01:01:03;;;;;;;3.25;2.83;;;;;;;26.94;37.18;98764.28;2088845;28;20147;-46
2023/09/11 01:02:04;;;;;;;3.95;3.65;;;;;;;26.96;37.17;98756.66;2086194;28;20045;-46
2023/09/11 01:03:05;;;;;;;5.35;3.38;;;;;;;26.96;37.55;98761.28;2086145;28;20110;-49
2023/09/11 01:04:07;;;;;;;3.53;2.95;;;;;;;26.95;37.70;98759.66;2086658;28;20131;-47
2023/09/11 01:05:10;;;;;;;3.25;2.78;;;;;;;26.95;38.14;98754.19;2085599;28;20447;-45
2023/09/11 01:06:11;;;;;;;3.00;2.70;;;;;;;27.02;37.17;98754.00;2088685;28;20051;-47
2023/09/11 01:07:13;;;;;;;6.05;3.38;;;;;;;27.03;37.01;98756.47;2089486;28;20316;-47
2023/09/11 01:08:14;;;;;;;3.40;3.10;;;;;;;27.00;37.24;98758.88;2086708;28;20518;-47
2023/09/11 01:09:17;;;;;;;4.32;3.80;;;;;;;27.04;36.97;98751.84;2088354;28;20076;-47
2023/09/11 01:10:18;;;;;;;4.00;3.65;;;;;;;27.04;36.60;98757.28;2085328;28;20171;-48
2023/09/11 01:11:20;;;;;;;4.72;3.55;;;;;;;27.09;36.60;98755.44;2086960;28;20752;-49
2023/09/11 01:12:20;;;;;;;5.57;3.15;;;;;;;27.04;36.63;98757.28;2088734;28;20442;-47
2023/09/11 01:13:23;;;;;;;6.85;3.35;;;;;;;27.04;36.93;98754.56;2086042;28;20123;-50
2023/09/11 01:14:24;;;;;;;3.17;2.88;;;;;;;27.03;36.87;98758.38;2088330;28;20052;-47
2023/09/11 01:15:32;;;;;;;3.65;2.88;;;;;;;26.99;36.53;98758.03;2086406;28;20060;-45
2023/09/11 01:16:39;;;;;;;4.25;3.22;;;;;;;26.96;36.80;98762.09;2086627;28;20051;-50
2023/09/11 01:17:47;;;;;;;4.60;3.45;;;;;;;26.92;36.94;98760.97;2087459;28;20087;-47
2023/09/11 01:18:53;;;;;;;5.40;3.47;;;;;;;26.91;36.77;98758.50;2087998;28;20048;-46
2023/09/11 01:20:15;;;;;;;4.13;3.70;;;;;;;26.87;37.07;98758.19;2086125;28;20076;-47
2023/09/11 01:21:42;;;;;;;;;;;;;;;26.67;37.35;98756.06;2088401;28;20071;-48
2023/09/11 01:23:08;;;;;;;3.13;2.83;;;;;;;26.68;37.04;98756.88;2068957;28;19929;-46
2023/09/11 01:24:38;;;;;;;3.83;3.08;;;;;;;26.71;37.13;98756.38;2067790;28;20053;-45
2023/09/11 01:26:04;;;;;;;4.03;3.10;;;;;;;26.71;37.02;98756.38;2069679;28;20053;-47
2023/09/11 01:27:37;;;;;;;3.65;3.30;;;;;;;26.77;36.83;98755.34;2070975;28;20126;-46
2023/09/11 01:29:07;;;;;;;4.63;3.35;;;;;;;26.80;37.18;98751.28;2070770;28;20053;-46
2023/09/11 01:30:08;;;;;;;3.58;2.55;;;;;;;26.85;37.22;98752.16;2058172;28;20086;-47
2023/09/11 01:31:11;;;;;;;5.05;3.15;;;;;;;26.87;36.84;98757.38;2069749;28;20053;-45
2023/09/11 01:32:15;;;;;;;4.47;3.30;;;;;;;26.91;37.02;98756.63;2068409;28;20054;-49
2023/09/11 01:33:17;;;;;;;3.55;2.97;;;;;;;26.93;36.66;98759.06;2070076;28;20055;-47
2023/09/11 01:34:18;;;;;;;3.97;3.40;;;;;;;26.85;37.18;98756.81;2068548;28;20534;-48
2023/09/11 01:35:20;;;;;;;5.80;2.90;;;;;;;26.83;37.24;98751.63;2069660;28;20152;-47
2023/09/11 01:36:21;;;;;;;4.20;3.33;;;;;;;26.86;37.15;98753.84;2067038;28;20667;-46
2023/09/11 01:37:23;;;;;;;5.35;2.90;;;;;;;26.88;37.34;98753.56;2067350;28;20634;-46
2023/09/11 01:38:24;;;;;;;4.63;3.60;;;;;;;26.88;37.50;98757.09;2068737;28;20524;-48
2023/09/11 01:39:26;;;;;;;4.38;3.10;;;;;;;26.93;37.09;98753.63;2067433;28;20057;-51
2023/09/11 01:40:31;;;;;;;5.40;3.78;;;;;;;26.91;37.10;98751.19;2067168;28;20077;-46
2023/09/11 01:41:36;;;;;;;4.00;2.78;;;;;;;26.93;37.14;98759.06;2068964;28;20069;-45
2023/09/11 01:42:42;;;;;;;4.38;3.55;;;;;;;26.93;37.34;98757.16;2070212;28;20049;-46
2023/09/11 01:43:46;;;;;;;6.50;3.30;;;;;;;26.92;36.52;98752.81;2067284;28;20151;-46
2023/09/11 01:44:50;;;;;;;3.92;3.40;;;;;;;26.94;36.74;98755.25;2069701;28;20192;-48
2023/09/11 01:45:51;;;;;;;5.00;2.85;;;;;;;26.93;36.72;98746.28;2068179;28;20053;-50
2023/09/11 01:46:54;;;;;;;4.20;3.10;;;;;;;26.93;37.04;98753.63;2068567;28;20408;-46
2023/09/11 01:47:58;;;;;;;4.35;3.05;;;;;;;26.93;36.77;98751.72;2068855;28;20525;-49
2023/09/11 01:49:02;;;;;;;5.03;2.90;;;;;;;26.93;36.62;98748.19;2069471;28;20041;-48
2023/09/11 01:50:04;;;;;;;3.78;2.97;;;;;;;26.96;36.74;98751.22;2068680;28;20053;-47
2023/09/11 01:51:08;;;;;;;4.25;3.38;;;;;;;26.96;36.65;98751.22;2068185;28;20320;-48
2023/09/11 01:52:10;;;;;;;4.68;3.05;;;;;;;26.93;36.94;98753.63;2067644;28;21368;-45
2023/09/11 01:53:13;;;;;;;3.38;2.70;;;;;;;26.87;37.21;98749.22;2068514;28;20050;-48
2023/09/11 01:54:15;;;;;;;3.25;2.95;;;;;;;26.86;37.59;98750.31;2070583;28;20078;-53
2023/09/11 01:55:17;;;;;;;5.80;3.17;;;;;;;26.85;37.69;98743.19;2066888;28;20053;-48
2023/09/11 01:56:19;;;;;;;3.65;3.17;;;;;;;26.89;37.40;98750.59;2066637;28;20064;-47
2023/09/11 01:57:21;;;;;;;3.58;2.88;;;;;;;26.90;37.42;98744.06;2069577;28;20050;-47
2023/09/11 01:58:22;;;;;;;3.78;2.85;;;;;;;26.91;37.48;98747.59;2068722;28;20493;-48
2023/09/11 01:59:25;;;;;;;3.38;2.92;;;;;;;26.91;36.79;98740.28;2079337;28;20673;-47
2023/09/11 02:00:27;;;;;;;4.38;2.90;;;;;;;26.94;36.79;98741.66;2087890;28;20509;-49
2023/09/11 02:01:29;;;;;;;4.93;3.75;;;;;;;26.92;36.92;98739.19;2087552;28;20068;-47
2023/09/11 02:02:30;;;;;;;6.15;2.28;;;;;;;26.94;36.90;98739.78;2084179;28;20739;-47
2023/09/11 02:03:32;;;;;;;3.13;2.72;;;;;;;26.93;36.66;98734.56;2086882;28;22340;-45
2023/09/11 02:04:33;;;;;;;4.88;3.28;;;;;;;27.00;36.86;98734.38;2087343;28;20404;-52
2023/09/11 02:05:34;;;;;;;3.67;2.80;;;;;;;26.98;36.57;98739.25;2087405;28;20079;-53
2023/09/11 02:06:35;;;;;;;5.40;2.90;;;;;;;26.93;36.94;98735.38;2085482;28;20088;-48
2023/09/11 02:07:36;;;;;;;3.53;3.17;;;;;;;26.91;37.08;98739.44;2087360;28;20421;-49
2023/09/11 02:08:38;;;;;;;6.10;2.97;;;;;;;26.95;36.83;98735.97;2087041;28;20056;-45
2023/09/11 02:09:39;;;;;;;4.60;4.13;;;;;;;26.92;36.69;98743.81;2084494;28;20722;-49
2023/09/11 02:10:41;;;;;;;5.07;3.20;;;;;;;27.00;36.81;98734.38;2087798;28;20127;-47
2023/09/11 02:11:42;;;;;;;3.65;2.95;;;;;;;27.03;36.54;98725.72;2087202;28;20048;-49
2023/09/11 02:12:44;;;;;;;5.07;3.47;;;;;;;27.03;36.87;98731.16;2085432;28;20040;-48
2023/09/11 02:13:44;;;;;;;3.97;2.80;;;;;;;26.97;36.83;98730.28;2085626;28;20053;-58
2023/09/11 02:14:46;;;;;;;4.97;3.38;;;;;;;26.94;37.25;98739.78;2087925;28;20359;-47
2023/09/11 02:15:48;;;;;;;3.92;3.10;;;;;;;26.90;36.57;98738.63;2086358;28;20052;-46
2023/09/11 02:16:50;;;;;;;3.42;3.13;;;;;;;26.82;37.24;98725.47;2089008;28;20123;-47
2023/09/11 02:17:51;;;;;;;3.72;3.10;;;;;;;26.88;36.87;98739.97;2086450;28;20059;-50
2023/09/11 02:18:53;;;;;;;3.63;3.28;;;;;;;26.90;36.95;98733.19;2087756;28;20143;-45
2023/09/11 02:19:54;;;;;;;3.97;3.00;;;;;;;26.90;36.98;98741.34;2085705;28;20481;-46
2023/09/11 02:20:56;;;;;;;6.00;3.20;;;;;;;26.86;37.17;98736.69;2088247;28;20147;-49
2023/09/11 02:21:57;;;;;;;4.05;2.70;;;;;;;26.82;37.47;98739.09;2086178;28;20049;-48
2023/09/11 02:22:59;;;;;;;4.30;3.90;;;;;;;26.90;37.42;98744.06;2086241;28;20164;-47
2023/09/11 02:24:00;;;;;;;5.63;3.13;;;;;;;26.89;37.41;98731.56;2086943;28;20391;-48
2023/09/11 02:25:02;;;;;;;3.30;3.00;;;;;;;26.91;37.39;98732.13;2088265;28;20139;-48
2023/09/11 02:26:03;;;;;;;2.70;2.50;;;;;;;26.90;37.05;98741.34;2086183;28;20045;-47
2023/09/11 02:27:05;;;;;;;3.40;3.03;;;;;;;26.90;37.50;98730.47;2087223;28;20052;-47
2023/09/11 02:28:06;;;;;;;3.22;2.72;;;;;;;26.80;37.35;98741.25;2086846;28;20116;-47
2023/09/11 02:29:07;;;;;;;7.22;3.55;;;;;;;26.79;36.91;98736.88;2085522;28;20124;-48
2023/09/11 02:45:45;;;;;;;4.30;3.78;;;;;;;26.68;37.66;98727.75;2083700;28;20473;-46
2023/09/11 02:46:46;;;;;;;3.85;3.42;;;;;;;26.74;37.35;98725.94;2086612;28;20052;-47
2023/09/11 02:47:48;;;;;;;3.50;3.20;;;;;;;26.79;37.17;98717.81;2085527;28;20147;-47
2023/09/11 02:48:49;;;;;;;4.80;3.30;;;;;;;26.81;37.24;98720.31;2087721;28;20055;-47
2023/09/11 02:49:51;;;;;;;3.83;3.17;;;;;;;26.82;37.34;98720.03;2084225;28;20060;-47
2023/09/11 02:50:52;;;;;;;3.65;3.28;;;;;;;26.82;37.41;98716.50;2087328;28;20049;-47
2023/09/11 02:51:54;;;;;;;4.60;3.17;;;;;;;26.80;37.52;98716.75;2087427;28;20392;-47
2023/09/11 02:52:55;;;;;;;4.03;3.20;;;;;;;26.81;37.67;98715.69;2086788;28;20475;-46
2023/09/11 02:53:57;;;;;;;4.03;3.45;;;;;;;26.82;37.56;98717.31;2087091;28;20143;-47
2023/09/11 02:54:58;;;;;;;5.82;3.20;;;;;;;26.84;37.30;98715.16;2084804;28;20533;-45
2023/09/11 02:55:59;;;;;;;3.55;2.90;;;;;;;26.86;37.25;98706.75;2085005;28;20418;-47
2023/09/11 02:57:00;;;;;;;5.13;3.13;;;;;;;26.86;37.30;98707.56;2087334;28;20053;-47
2023/09/11 02:58:02;;;;;;;5.22;3.25;;;;;;;26.87;37.22;98703.75;2086033;28;20040;-47
2023/09/11 02:59:03;;;;;;;5.53;3.17;;;;;;;26.87;37.68;98711.94;2085921;28;20052;-49
2023/09/11 03:00:09;;;;;;;5.18;2.90;;;;;;;26.86;37.23;98707.56;2085402;28;20143;-46
2023/09/11 03:01:11;;;;;;;4.82;3.67;;;;;;;26.82;37.33;98711.88;2086145;28;20082;-45
2023/09/11 03:02:13;;;;;;;3.38;3.05;;;;;;;26.78;37.43;98712.66;2086874;28;20052;-47
2023/09/11 03:03:14;;;;;;;3.97;3.17;;;;;;;26.74;37.62;98720.47;2084810;28;20044;-45
2023/09/11 03:04:15;;;;;;;2.55;2.33;;;;;;;26.72;37.92;98722.66;2087448;28;20077;-46
2023/09/11 03:05:17;;;;;;;5.68;3.05;;;;;;;26.74;37.58;98721.31;2087427;28;20133;-46
2023/09/11 03:06:18;;;;;;;3.80;3.28;;;;;;;26.75;37.80;98716.72;2087006;28;20045;-47
2023/09/11 03:07:20;;;;;;;5.07;3.72;;;;;;;26.78;37.28;98720.81;2085177;28;20080;-50
2023/09/11 03:08:21;;;;;;;5.72;3.13;;;;;;;26.78;37.32;98723.53;2086976;28;20514;-46
2023/09/11 03:09:23;;;;;;;3.53;3.22;;;;;;;26.74;37.51;98724.06;2087813;28;20036;-50
2023/09/11 03:10:23;;;;;;;4.47;3.92;;;;;;;26.77;37.73;98713.72;2086447;28;20487;-48
2023/09/11 03:11:25;;;;;;;3.78;2.88;;;;;;;26.79;37.39;98719.72;2087945;28;20052;-46
2023/09/11 03:12:29;;;;;;;7.05;3.42;;;;;;;26.79;37.84;98717.81;2087325;28;20049;-48
2023/09/11 03:13:30;;;;;;;3.97;3.58;;;;;;;26.77;37.65;98709.09;2076444;28;20049;-45
2023/09/11 03:14:32;;;;;;;4.18;3.15;;;;;;;26.74;37.82;98710.44;2082472;28;20508;-48
2023/09/11 03:15:32;;;;;;;3.70;3.15;;;;;;;26.74;37.57;98718.59;2083814;28;20045;-45
2023/09/11 03:16:36;;;;;;;3.55;3.08;;;;;;;26.73;37.46;98707.97;2088932;28;20413;-47
2023/09/11 03:17:37;;;;;;;6.43;3.28;;;;;;;26.71;37.47;98712.84;2086594;28;20648;-45
2023/09/11 03:18:40;;;;;;;6.05;3.63;;;;;;;26.70;37.52;98713.91;2087085;28;20052;-45
2023/09/11 03:19:41;;;;;;;3.97;3.03;;;;;;;26.72;37.70;98715.31;2083833;28;20441;-46
2023/09/11 03:20:42;;;;;;;4.22;3.70;;;;;;;26.71;37.56;98707.38;2087156;28;20064;-46
2023/09/11 03:21:43;;;;;;;5.70;3.50;;;;;;;26.71;37.57;98710.94;2086892;28;20045;-46
2023/09/11 03:22:45;;;;;;;8.57;3.33;;;;;;;26.70;37.64;98711.19;2086282;28;20087;-46
2023/09/11 03:23:46;;;;;;;5.13;4.50;;;;;;;26.69;37.81;98706.81;2085847;28;20595;-47
2023/09/11 03:24:48;;;;;;;4.22;3.67;;;;;;;26.68;37.60;98716.06;2085362;28;20056;-48
2023/09/11 03:25:49;;;;;;;7.80;3.80;;;;;;;26.66;37.78;98710.06;2085224;28;20530;-45
2023/09/11 03:26:50;;;;;;;3.40;3.08;;;;;;;26.67;37.44;98707.09;2085345;28;20075;-45
2023/09/11 03:27:51;;;;;;;3.78;3.47;;;;;;;26.69;37.89;98709.53;2085937;28;20044;-48
2023/09/11 03:28:53;;;;;;;4.40;3.90;;;;;;;26.70;37.75;98708.47;2086715;28;20045;-47
2023/09/11 03:29:55;;;;;;;4.00;3.60;;;;;;;26.69;37.92;98704.09;2085302;28;20044;-47
2023/09/11 03:31:01;;;;;;;8.35;3.65;;;;;;;26.69;37.59;98707.66;2087622;28;20045;-46
2023/09/11 03:32:05;;;;;;;3.95;2.53;;;;;;;26.63;38.01;98708.66;2085816;28;20056;-46
2023/09/11 03:33:05;;;;;;;3.55;2.83;;;;;;;26.60;38.08;98706.44;2087733;28;20067;-47
2023/09/11 03:34:07;;;;;;;5.40;3.10;;;;;;;26.60;38.20;98711.06;2089606;28;20041;-47
2023/09/11 03:35:09;;;;;;;4.03;3.47;;;;;;;26.58;37.64;98714.06;2088624;28;20499;-48
2023/09/11 03:36:14;;;;;;;4.63;3.15;;;;;;;26.57;37.58;98709.69;2085682;28;20982;-47
2023/09/11 03:37:15;;;;;;;3.65;3.35;;;;;;;26.61;37.59;98707.28;2087725;28;20060;-46
2023/09/11 03:38:16;;;;;;;3.80;2.83;;;;;;;26.60;37.70;98711.88;2086299;28;20123;-48
2023/09/11 03:39:18;;;;;;;5.28;3.72;;;;;;;26.61;37.64;98710.00;2087860;28;20049;-48
2023/09/11 03:40:20;;;;;;;3.92;3.25;;;;;;;26.63;37.82;98716.81;2087744;28;20056;-45
2023/09/11 03:41:22;;;;;;;5.43;3.50;;;;;;;26.62;37.65;98712.47;2087953;28;20339;-47
2023/09/11 03:42:23;;;;;;;6.80;3.55;;;;;;;26.66;37.89;98710.91;2087937;28;20079;-46
2023/09/11 03:43:24;;;;;;;7.68;3.40;;;;;;;26.67;37.95;98717.16;2089657;28;20060;-47
2023/09/11 03:44:25;;;;;;;5.93;3.95;;;;;;;26.67;38.14;98711.72;2087332;28;20064;-46
2023/09/11 03:45:26;;;;;;;7.72;3.78;;;;;;;26.67;37.83;98714.44;2089574;28;20051;-47
2023/09/11 03:46:28;;;;;;;3.50;3.03;;;;;;;26.67;37.68;98704.38;2085697;28;20045;-46
2023/09/11 03:47:31;;;;;;;4.10;3.10;;;;;;;26.63;38.15;98703.22;2091890;28;20037;-47
2023/09/11 03:48:32;;;;;;;3.70;3.33;;;;;;;26.66;38.13;98707.31;2086437;28;20041;-47
2023/09/11 03:49:33;;;;;;;4.60;3.40;;;;;;;26.68;38.16;98703.28;2088390;28;20040;-47
2023/09/11 03:50:35;;;;;;;6.63;3.60;;;;;;;26.67;38.22;98709.00;2089510;28;20052;-45
2023/09/11 03:51:36;;;;;;;4.72;3.55;;;;;;;26.66;38.14;98705.47;2087471;28;20045;-49
2023/09/11 03:52:38;;;;;;;5.07;3.10;;;;;;;26.67;37.87;98709.00;2089554;28;20056;-45
2023/09/11 03:53:42;;;;;;;4.47;3.53;;;;;;;26.66;38.35;98710.91;2090323;28;20076;-47
2023/09/11 03:54:44;;;;;;;3.65;3.13;;;;;;;26.63;38.14;98707.84;2089047;28;20052;-48
2023/09/11 03:55:45;;;;;;;6.25;3.58;;;;;;;26.64;38.09;98707.59;2090706;28;20087;-46
2023/09/11 03:56:46;;;;;;;5.40;3.95;;;;;;;26.68;38.27;98705.19;2090060;28;20048;-47
2023/09/11 03:57:48;;;;;;;3.85;3.45;;;;;;;26.67;38.03;98698.94;2089500;28;20539;-45
2023/09/11 03:58:49;;;;;;;4.57;3.15;;;;;;;26.65;38.49;98698.34;2090054;28;20780;-47
2023/09/11 03:59:51;;;;;;;3.80;2.38;;;;;;;26.65;38.21;98702.97;2088069;28;20072;-47
2023/09/11 04:00:54;;;;;;;3.97;3.15;;;;;;;26.65;38.06;98695.63;2089955;28;20056;-47
2023/09/11 04:01:56;;;;;;;3.70;3.40;;;;;;;26.66;38.22;98701.88;2088284;28;20075;-51
2023/09/11 04:02:58;;;;;;;3.85;3.30;;;;;;;26.65;38.05;98695.63;2088344;28;20051;-51
2023/09/11 04:04:00;;;;;;;4.80;3.40;;;;;;;26.62;38.36;98708.94;2089809;28;20055;-47
2023/09/11 04:05:01;;;;;;;5.05;3.08;;;;;;;26.59;37.97;98704.00;2091235;28;20068;-46
2023/09/11 04:06:02;;;;;;;6.80;4.10;;;;;;;26.60;38.47;98702.91;2090828;28;20051;-47
2023/09/11 04:07:04;;;;;;;3.72;2.97;;;;;;;26.57;38.49;98701.53;2090769;28;20081;-46
2023/09/11 04:08:05;;;;;;;5.63;3.85;;;;;;;26.56;38.31;98702.59;2090854;28;20433;-47
2023/09/11 04:09:07;;;;;;;3.70;3.28;;;;;;;26.55;38.64;98706.41;2090018;28;20131;-46
2023/09/11 04:10:09;;;;;;;3.53;3.22;;;;;;;26.54;38.48;98704.75;2090325;28;20049;-46
2023/09/11 04:11:10;;;;;;;4.93;3.58;;;;;;;26.54;38.54;98709.38;2090284;28;20600;-47
2023/09/11 04:12:14;;;;;;;4.55;3.63;;;;;;;26.53;38.51;98700.41;2089569;28;20047;-45
2023/09/11 04:13:16;;;;;;;4.32;3.28;;;;;;;26.51;38.51;98706.09;2089701;28;20122;-47
2023/09/11 04:14:17;;;;;;;4.97;3.58;;;;;;;26.51;38.08;98711.53;2090269;28;20509;-47
2023/09/11 04:15:17;;;;;;;5.20;3.40;;;;;;;26.52;38.57;98707.75;2089239;28;20153;-47
2023/09/11 04:16:21;;;;;;;3.25;2.95;;;;;;;26.51;38.63;98714.25;2089342;28;20052;-47
2023/09/11 04:17:22;;;;;;;4.35;3.55;;;;;;;26.51;38.20;98716.16;2089457;28;20882;-47
2023/09/11 04:18:24;;;;;;;3.92;3.33;;;;;;;26.51;38.49;98714.25;2088839;28;20102;-47
2023/09/11 04:19:26;;;;;;;4.15;3.13;;;;;;;26.54;38.20;98707.47;2088004;28;20135;-45
2023/09/11 04:20:32;;;;;;;3.33;3.03;;;;;;;26.54;38.67;98715.63;2085330;28;20048;-47
2023/09/11 04:21:34;;;;;;;5.38;3.83;;;;;;;26.51;38.30;98711.53;2088638;28;20060;-48
2023/09/11 04:22:35;;;;;;;6.65;3.65;;;;;;;26.51;38.81;98710.69;2089276;28;20054;-49
2023/09/11 04:23:38;;;;;;;3.80;3.40;;;;;;;26.52;38.63;98706.91;2090461;28;20136;-47
2023/09/11 04:24:39;;;;;;;6.50;4.20;;;;;;;26.49;38.75;98702.78;2090278;28;20505;-47
2023/09/11 04:25:45;;;;;;;4.13;3.72;;;;;;;26.53;38.41;98703.13;2089934;28;20059;-49
2023/09/11 04:26:46;;;;;;;3.45;3.15;;;;;;;26.51;38.71;98703.34;2090302;28;21758;-48
2023/09/11 04:27:48;;;;;;;7.78;3.72;;;;;;;26.52;38.59;98704.19;2088451;28;20057;-47
2023/09/11 04:28:49;;;;;;;3.67;3.30;;;;;;;26.52;38.46;98702.31;2090419;28;20835;-46
2023/09/11 04:29:51;;;;;;;4.30;3.40;;;;;;;26.52;38.55;98707.75;2090963;28;20131;-45
2023/09/11 04:30:52;;;;;;;4.68;3.45;;;;;;;26.49;38.74;98701.94;2089431;28;20426;-45
2023/09/11 04:31:54;;;;;;;4.10;3.35;;;;;;;26.45;38.92;98700.81;2089809;28;20690;-50
2023/09/11 04:32:55;;;;;;;7.38;4.55;;;;;;;26.47;38.83;98696.78;2088597;28;20114;-46
2023/09/11 04:33:58;;;;;;;4.40;3.55;;;;;;;26.49;39.00;98705.50;2089119;28;20139;-46
2023/09/11 04:34:59;;;;;;;4.93;3.40;;;;;;;26.50;39.03;98695.44;2090662;28;20044;-47
2023/09/11 04:36:01;;;;;;;3.97;3.58;;;;;;;26.50;38.62;98704.44;2088715;28;20129;-48
2023/09/11 04:37:02;;;;;;;5.43;3.33;;;;;;;26.48;38.53;98698.41;2091035;28;20514;-46
2023/09/11 04:38:04;;;;;;;6.38;4.05;;;;;;;26.52;38.24;98707.75;2088192;28;20132;-47
2023/09/11 04:39:05;;;;;;;5.05;3.65;;;;;;;26.46;38.89;98705.16;2089450;28;20052;-47
2023/09/11 04:40:08;;;;;;;5.05;3.00;;;;;;;26.48;38.80;98703.84;2089756;28;20055;-47
2023/09/11 04:41:09;;;;;;;3.88;3.45;;;;;;;26.48;38.49;98701.13;2088136;28;20510;-46
2023/09/11 04:42:11;;;;;;;3.72;3.42;;;;;;;26.52;38.44;98699.59;2087641;28;20127;-47
2023/09/11 04:43:12;;;;;;;5.00;3.60;;;;;;;26.52;38.70;98701.47;2090049;28;20055;-46
2023/09/11 04:44:14;;;;;;;3.47;3.17;;;;;;;26.53;38.92;98703.13;2089158;28;20572;-48
2023/09/11 04:45:15;;;;;;;4.75;3.20;;;;;;;26.50;38.44;98707.16;2089237;28;20124;-55
2023/09/11 04:46:17;;;;;;;3.95;3.53;;;;;;;26.50;38.33;98700.88;2089010;28;20052;-55
2023/09/11 04:47:18;;;;;;;3.30;2.85;;;;;;;26.49;38.87;98707.38;2089467;28;20136;-47
2023/09/11 04:48:20;;;;;;;6.22;3.30;;;;;;;26.43;38.70;98698.34;2088538;28;20422;-53
2023/09/11 04:49:22;;;;;;;4.00;3.60;;;;;;;26.42;38.49;98702.13;2087713;28;20048;-45
2023/09/11 04:50:24;;;;;;;5.35;3.63;;;;;;;26.40;38.65;98712.44;2087274;28;20079;-53
2023/09/11 04:51:25;;;;;;;4.72;3.72;;;;;;;26.41;39.01;98705.94;2092201;28;20047;-52
2023/09/11 04:52:27;;;;;;;6.28;4.35;;;;;;;26.42;38.90;98712.19;2088594;28;20477;-49
2023/09/11 04:53:28;;;;;;;4.90;4.10;;;;;;;26.45;39.10;98715.22;2086715;28;20053;-54
2023/09/11 04:54:29;;;;;;;12.90;5.38;;;;;;;26.45;38.73;98709.78;2089620;28;20045;-52
2023/09/11 04:55:30;;;;;;;13.30;5.18;;;;;;;26.41;39.20;98713.25;2088237;28;20049;-53
2023/09/11 04:56:32;;;;;;;16.08;5.57;;;;;;;26.48;38.76;98711.19;2088385;28;20129;-55
2023/09/11 04:57:33;;;;;;;10.30;4.38;;;;;;;26.47;39.02;98713.09;2090067;28;20514;-49
2023/09/11 04:58:35;;;;;;;6.72;4.80;;;;;;;26.45;38.59;98715.22;2088845;28;20047;-53
2023/09/11 04:59:36;;;;;;;10.15;3.83;;;;;;;26.44;38.88;98707.31;2089784;28;20109;-54
2023/09/11 05:00:36;;;;;;;11.13;4.15;;;;;;;26.42;38.37;98713.03;2086894;28;20072;-53
2023/09/11 05:01:38;;;;;;;6.75;3.60;;;;;;;26.44;38.34;98710.03;2088701;28;20135;-45
2023/09/11 05:02:40;;;;;;;6.32;4.32;;;;;;;26.43;38.37;98702.97;2087252;28;20405;-51
2023/09/11 05:03:41;;;;;;;5.53;3.92;;;;;;;26.41;38.27;98711.38;2088975;28;20131;-53
2023/09/11 05:04:46;;;;;;;5.97;3.35;;;;;;;26.39;38.70;98712.72;2089174;28;20044;-52
2023/09/11 05:05:49;;;;;;;8.13;3.72;;;;;;;26.38;38.54;98713.75;2079285;28;20553;-51
2023/09/11 05:06:49;;;;;;;6.13;3.78;;;;;;;26.34;38.41;98713.47;2082395;28;20056;-54
2023/09/11 05:07:51;;;;;;;5.07;3.60;;;;;;;26.37;39.08;98714.84;2086471;28;20051;-54
2023/09/11 05:08:52;;;;;;;6.05;3.17;;;;;;;26.34;38.58;98716.19;2089169;28;20044;-56
2023/09/11 05:09:54;;;;;;;6.95;3.70;;;;;;;26.38;38.41;98717.31;2088689;28;20105;-47
2023/09/11 05:10:55;;;;;;;4.85;3.53;;;;;;;26.42;38.69;98717.63;2089124;28;20455;-53
2023/09/11 05:11:57;;;;;;;4.20;3.35;;;;;;;26.42;38.81;98712.19;2087339;28;20052;-45
2023/09/11 05:12:57;;;;;;;4.60;3.45;;;;;;;26.41;38.92;98716.81;2088332;28;20055;-49
2023/09/11 05:13:59;;;;;;;5.18;4.10;;;;;;;26.42;38.70;98717.63;2088294;28;20441;-50
2023/09/11 05:15:00;;;;;;;6.30;3.42;;;;;;;26.40;38.47;98714.34;2088577;28;20232;-55
2023/09/11 05:16:03;;;;;;;7.65;3.53;;;;;;;26.40;38.70;98714.34;2089196;28;20558;-55
2023/09/11 05:17:04;;;;;;;4.68;3.85;;;;;;;26.41;38.68;98718.69;2087879;28;20598;-57
2023/09/11 05:18:06;;;;;;;4.70;4.05;;;;;;;26.41;39.01;98716.81;2088310;28;20056;-47
2023/09/11 05:19:07;;;;;;;3.95;3.55;;;;;;;26.37;39.00;98718.38;2089117;28;20052;-54
2023/09/11 05:20:10;;;;;;;3.83;3.13;;;;;;;26.43;39.01;98711.13;2087822;28;20499;-52
2023/09/11 05:21:12;;;;;;;4.32;3.53;;;;;;;26.41;39.01;98715.97;2088367;28;20076;-56
2023/09/11 05:22:13;;;;;;;6.43;3.88;;;;;;;26.36;38.83;98713.22;2086519;28;20048;-56
2023/09/11 05:23:14;;;;;;;7.00;3.75;;;;;;;26.32;38.72;98718.31;2086701;28;20484;-49
2023/09/11 05:24:16;;;;;;;4.60;3.65;;;;;;;26.34;39.04;98718.91;2086621;28;20056;-51
2023/09/11 05:25:18;;;;;;;5.25;3.80;;;;;;;26.37;38.89;98725.72;2089446;28;20544;-46
2023/09/11 05:26:19;;;;;;;5.22;3.90;;;;;;;26.37;38.66;98718.38;2089382;28;20055;-54
2023/09/11 05:27:21;;;;;;;3.60;3.20;;;;;;;26.36;38.81;98721.38;2088760;28;20140;-58
2023/09/11 05:28:22;;;;;;;3.88;3.28;;;;;;;26.31;39.10;98722.13;2087407;28;20075;-51
2023/09/11 05:29:24;;;;;;;4.25;3.50;;;;;;;26.30;38.98;98718.59;2085759;28;20565;-52
2023/09/11 05:30:25;;;;;;;9.95;4.25;;;;;;;26.34;38.81;98724.34;2089970;28;20041;-47
2023/09/11 05:31:27;;;;;;;7.68;4.18;;;;;;;26.35;39.18;98725.97;2087552;28;20152;-52
2023/09/11 05:32:28;;;;;;;8.38;3.75;;;;;;;26.35;38.98;98728.69;2087453;28;20048;-52
2023/09/11 05:33:29;;;;;;;4.80;3.67;;;;;;;26.31;38.81;98722.13;2088047;28;20076;-56
2023/09/11 05:34:31;;;;;;;3.97;3.58;;;;;;;26.30;38.88;98715.88;2087505;28;20501;-54
2023/09/11 05:35:33;;;;;;;7.63;3.67;;;;;;;26.38;38.84;98719.19;2087794;28;20056;-51
2023/09/11 05:36:35;;;;;;;4.32;3.67;;;;;;;26.35;39.23;98717.81;2087756;28;20101;-54
2023/09/11 05:37:35;;;;;;;6.85;2.95;;;;;;;26.35;39.15;98722.44;2086873;28;20159;-48